createdAt,value
2023-01-11T00:04:36.494Z,4.00
2023-01-11T00:10:01.815Z,3.98
2023-01-11T00:15:27.471Z,3.95
2023-01-11T00:21:01.450Z,3.88
2023-01-11T00:26:26.562Z,3.82
2023-01-11T00:31:50.428Z,3.76
2023-01-11T00:37:18.428Z,3.75
2023-01-11T00:43:04.308Z,3.74
2023-01-11T00:48:29.454Z,3.72
2023-01-11T00:53:58.500Z,3.70
2023-01-11T00:59:23.479Z,3.73
2023-01-11T01:04:48.963Z,3.71
2023-01-11T01:10:18.437Z,3.69
2023-01-11T01:15:43.481Z,3.70
2023-01-11T01:21:14.470Z,3.73
2023-01-11T01:26:42.517Z,3.76
2023-01-11T01:32:08.491Z,3.78
2023-01-11T01:37:33.527Z,3.81
2023-01-11T01:43:00.470Z,3.83
2023-01-11T01:48:30.466Z,3.83
2023-01-11T01:54:00.557Z,3.90
2023-01-11T01:59:30.505Z,3.92
2023-01-11T02:04:58.484Z,3.95
2023-01-11T02:10:25.508Z,4.01
2023-01-11T02:15:52.527Z,4.05
2023-01-11T02:21:31.530Z,4.11
2023-01-11T02:27:31.459Z,4.14
2023-01-11T02:33:08.526Z,4.19
2023-01-11T02:38:43.475Z,4.23
2023-01-11T02:44:33.488Z,4.25
2023-01-11T02:50:09.549Z,4.27
2023-01-11T02:55:39.529Z,4.28
2023-01-11T03:01:05.534Z,4.32
2023-01-11T03:06:36.636Z,4.31
2023-01-11T03:12:29.475Z,4.28
2023-01-11T03:18:06.477Z,4.31
2023-01-11T03:23:43.545Z,4.32
2023-01-11T03:29:15.503Z,4.35
2023-01-11T03:34:44.504Z,4.34
2023-01-11T03:40:16.542Z,4.31
2023-01-11T03:45:45.503Z,4.31
2023-01-11T03:51:12.504Z,4.33
2023-01-11T03:56:46.536Z,4.39
2023-01-11T04:02:11.521Z,4.41
2023-01-11T04:07:36.519Z,4.43
2023-01-11T04:13:05.559Z,4.45
2023-01-11T04:18:30.537Z,4.48
2023-01-11T04:23:54.535Z,4.50
2023-01-11T04:29:22.554Z,4.51
2023-01-11T04:34:46.534Z,4.53
2023-01-11T04:40:11.538Z,4.54
2023-01-11T04:45:39.578Z,4.55
2023-01-11T04:51:04.534Z,4.50
2023-01-11T04:56:28.536Z,4.51
2023-01-11T05:01:56.546Z,4.51
2023-01-11T05:07:22.571Z,4.52
2023-01-11T05:12:47.580Z,4.52
2023-01-11T05:18:14.584Z,4.52
2023-01-11T05:23:39.580Z,4.56
2023-01-11T05:29:04.565Z,4.59
2023-01-11T05:34:32.598Z,4.60
2023-01-11T05:39:56.581Z,4.60
2023-01-11T05:45:40.668Z,4.59
2023-01-11T05:51:08.545Z,4.62
2023-01-11T05:56:33.576Z,4.65
2023-01-11T06:01:58.633Z,4.68
2023-01-11T06:07:25.594Z,4.70
2023-01-11T06:12:50.568Z,4.74
2023-01-11T06:18:14.605Z,4.79
2023-01-11T06:23:44.555Z,4.81
2023-01-11T06:29:02.564Z,4.83
2023-01-11T06:34:27.576Z,4.92
2023-01-11T06:39:55.585Z,4.97
2023-01-11T06:45:27.625Z,5.00
2023-01-11T06:50:52.622Z,5.05
2023-01-11T06:56:19.600Z,5.14
2023-01-11T07:01:44.648Z,5.23
2023-01-11T07:07:08.661Z,5.35
2023-01-11T07:12:36.600Z,5.40
2023-01-11T07:18:00.598Z,5.49
2023-01-11T07:23:25.629Z,5.52
2023-01-11T07:28:52.603Z,5.57
2023-01-11T07:34:17.609Z,5.60
2023-01-11T07:39:44.188Z,5.62
2023-01-11T07:45:17.687Z,5.66
2023-01-11T07:50:44.718Z,5.69
2023-01-11T07:56:10.617Z,5.73
2023-01-11T08:01:38.717Z,5.75
2023-01-11T08:07:02.641Z,5.80
2023-01-11T08:12:39.627Z,5.83
2023-01-11T08:18:06.631Z,5.90
2023-01-11T08:23:31.665Z,5.97
2023-01-11T08:28:49.647Z,6.06
2023-01-11T08:34:16.629Z,6.11
2023-01-11T08:39:41.622Z,6.19
2023-01-11T08:45:12.642Z,6.24
2023-01-11T08:50:40.641Z,6.34
2023-01-11T08:56:05.640Z,6.40
2023-01-11T09:01:31.401Z,6.46
2023-01-11T09:06:58.681Z,6.52
2023-01-11T09:12:23.670Z,6.57
2023-01-11T09:17:47.669Z,6.62
2023-01-11T09:23:16.669Z,6.67
2023-01-11T09:28:40.773Z,6.74
2023-01-11T09:34:05.751Z,6.81
2023-01-11T09:39:34.693Z,6.89
2023-01-11T09:45:03.648Z,7.02
2023-01-11T09:50:32.679Z,7.12
2023-01-11T09:56:04.007Z,7.25
2023-01-11T10:01:36.764Z,7.37
2023-01-11T10:07:20.687Z,7.44
2023-01-11T10:19:30.891Z,7.55
2023-01-11T10:24:50.710Z,7.59
2023-01-11T10:30:51.757Z,7.52
2023-01-11T10:36:37.701Z,7.40
2023-01-11T10:42:11.697Z,7.31
2023-01-11T10:47:47.730Z,7.23
2023-01-11T10:53:23.728Z,7.20
2023-01-11T10:59:15.732Z,7.14
2023-01-11T11:04:47.754Z,7.06
2023-01-11T11:10:22.751Z,7.03
2023-01-11T11:15:56.765Z,6.98
2023-01-11T11:21:32.722Z,6.98
2023-01-11T11:27:02.780Z,6.94
2023-01-11T11:32:34.024Z,6.97
2023-01-11T11:38:02.799Z,6.98
2023-01-11T11:43:30.751Z,7.00
2023-01-11T11:48:55.731Z,7.03
2023-01-11T11:54:31.713Z,7.07
2023-01-11T12:00:04.763Z,7.09
2023-01-11T12:05:29.780Z,7.11
2023-01-11T12:11:03.840Z,7.12
2023-01-11T12:16:30.763Z,7.13
2023-01-11T12:21:54.781Z,7.14
2023-01-11T12:27:35.768Z,7.12
2023-01-11T12:33:26.757Z,7.13
2023-01-11T12:39:03.748Z,7.13
2023-01-11T12:44:43.826Z,7.14
2023-01-11T12:50:17.780Z,7.17
2023-01-11T12:55:51.791Z,7.15
2023-01-11T13:01:43.864Z,7.18
2023-01-11T13:07:14.766Z,7.19
2023-01-11T13:12:48.763Z,7.19
2023-01-11T13:18:22.810Z,7.19
2023-01-11T13:23:52.791Z,7.18
2023-01-11T13:29:20.959Z,7.18
2023-01-11T13:34:52.884Z,7.17
2023-01-11T13:40:23.985Z,7.17
2023-01-11T13:45:54.839Z,7.19
2023-01-11T13:51:33.806Z,7.20
2023-01-11T13:57:05.805Z,7.20
2023-01-11T14:02:38.810Z,7.21
2023-01-11T14:08:32.829Z,7.23
2023-01-11T14:14:24.871Z,7.24
2023-01-11T14:19:54.808Z,7.24
2023-01-11T14:25:30.851Z,7.28
2023-01-11T14:31:18.835Z,7.30
2023-01-11T14:37:12.792Z,7.32
2023-01-11T14:43:12.797Z,7.30
2023-01-11T14:48:45.855Z,7.31
2023-01-11T14:54:15.820Z,7.32
2023-01-11T14:59:55.870Z,7.32
2023-01-11T15:05:42.817Z,7.32
2023-01-11T15:11:15.819Z,7.30
2023-01-11T15:17:05.746Z,7.28
2023-01-11T15:22:46.867Z,7.25
2023-01-11T15:28:33.834Z,7.23
2023-01-11T15:34:05.932Z,7.20
2023-01-11T15:39:49.159Z,7.19
2023-01-11T15:45:34.865Z,7.17
2023-01-11T15:51:26.979Z,7.15
2023-01-11T15:57:08.866Z,7.13
2023-01-11T16:03:23.893Z,7.11
2023-01-11T16:08:59.911Z,7.14
2023-01-11T16:14:47.880Z,7.12
2023-01-11T16:20:13.877Z,7.12
2023-01-11T16:25:46.995Z,7.12
2023-01-11T16:31:17.552Z,7.11
2023-01-11T16:36:48.907Z,7.07
2023-01-11T16:42:18.960Z,7.03
2023-01-11T16:47:44.879Z,7.05
2023-01-11T16:53:11.879Z,7.05
2023-01-11T16:58:41.868Z,7.15
2023-01-11T17:04:12.784Z,7.27
2023-01-11T17:09:42.536Z,7.40
2023-01-11T17:15:23.923Z,7.44
2023-01-11T17:20:48.946Z,7.56
2023-01-11T17:26:14.840Z,7.62
2023-01-11T17:31:45.923Z,7.46
2023-01-11T17:37:16.904Z,7.33
2023-01-11T17:42:54.913Z,7.13
2023-01-11T17:48:28.938Z,7.13
2023-01-11T17:53:58.925Z,7.01
2023-01-11T17:59:35.921Z,6.94
2023-01-11T18:05:09.096Z,6.85
2023-01-11T18:10:36.902Z,6.74
2023-01-11T18:16:02.997Z,6.62
2023-01-11T18:22:05.957Z,6.49
2023-01-11T18:27:39.911Z,6.45
2023-01-11T18:33:06.943Z,6.43
2023-01-11T18:38:41.899Z,6.44
2023-01-11T18:44:08.915Z,6.45
2023-01-11T18:49:35.970Z,6.50
2023-01-11T18:55:05.944Z,6.49
2023-01-11T19:00:39.003Z,6.41
2023-01-11T19:06:03.956Z,6.40
2023-01-11T19:11:32.024Z,6.46
2023-01-11T19:16:57.971Z,6.30
2023-01-11T19:22:26.169Z,6.30
2023-01-11T19:27:55.138Z,6.15
2023-01-11T19:33:21.001Z,6.13
2023-01-11T19:39:08.960Z,6.03
2023-01-11T19:44:41.807Z,6.01
2023-01-11T19:50:07.967Z,5.94
2023-01-11T19:55:36.959Z,5.86
2023-01-11T20:01:13.999Z,5.86
2023-01-11T20:06:38.955Z,5.73
2023-01-11T20:12:04.992Z,5.66
2023-01-11T20:17:33.003Z,5.49
2023-01-11T20:22:59.986Z,5.45
2023-01-11T20:28:26.948Z,5.46
2023-01-11T20:33:54.002Z,5.34
2023-01-11T20:39:19.987Z,5.41
2023-01-11T20:44:45.000Z,5.55
2023-01-11T20:50:25.714Z,5.59
2023-01-11T20:55:57.615Z,5.50
2023-01-11T21:01:29.176Z,5.43
2023-01-11T21:06:58.072Z,5.44
2023-01-11T21:12:24.015Z,5.43
2023-01-11T21:17:49.031Z,5.32
2023-01-11T21:23:16.084Z,5.39
2023-01-11T21:28:41.024Z,5.33
2023-01-11T21:34:06.099Z,5.39
2023-01-11T21:39:34.026Z,5.35
2023-01-11T21:44:58.044Z,5.42
2023-01-11T21:50:23.023Z,5.35
2023-01-11T21:55:50.035Z,5.28
2023-01-11T22:01:26.053Z,5.23
2023-01-11T22:06:54.157Z,5.16
2023-01-11T22:12:21.055Z,5.07
2023-01-11T22:17:46.057Z,4.75
2023-01-11T22:23:11.021Z,4.65
2023-01-11T22:28:39.126Z,4.53
2023-01-11T22:34:04.064Z,4.30
2023-01-11T22:39:31.047Z,4.25
2023-01-11T22:45:00.043Z,4.20
2023-01-11T22:50:26.027Z,4.13
2023-01-11T22:55:50.074Z,4.16
2023-01-11T23:01:32.095Z,4.20
2023-01-11T23:06:57.063Z,4.26
2023-01-11T23:12:35.057Z,4.23
2023-01-11T23:18:03.031Z,4.09
2023-01-11T23:23:29.176Z,4.01
2023-01-11T23:28:55.072Z,3.91
2023-01-11T23:34:22.044Z,3.82
2023-01-11T23:39:47.107Z,3.71
2023-01-11T23:45:13.040Z,3.65
2023-01-11T23:50:41.064Z,3.70
2023-01-11T23:56:10.114Z,3.96
